createdAt,value
2019-01-24T00:00:15.664Z,-2.89
2019-01-24T00:01:15.686Z,-2.86
2019-01-24T00:02:15.703Z,-2.86
2019-01-24T00:03:15.727Z,-2.83
2019-01-24T00:04:16.878Z,-2.81
2019-01-24T00:05:15.766Z,-2.86
2019-01-24T00:06:15.787Z,-2.84
2019-01-24T00:07:15.808Z,-2.87
2019-01-24T00:08:15.830Z,-2.86
2019-01-24T00:09:15.850Z,-2.90
2019-01-24T00:10:15.872Z,-2.80
2019-01-24T00:11:15.892Z,-2.84
2019-01-24T00:12:15.917Z,-2.84
2019-01-24T00:13:15.933Z,-2.90
2019-01-24T00:14:15.952Z,-2.80
2019-01-24T00:15:15.976Z,-2.99
2019-01-24T00:16:16.015Z,-2.84
2019-01-24T00:17:16.013Z,-2.89
2019-01-24T00:18:16.094Z,-3.01
2019-01-24T00:19:16.054Z,-2.93
2019-01-24T00:20:16.079Z,-2.93
2019-01-24T00:21:16.097Z,-2.99
2019-01-24T00:22:16.118Z,-3.01
2019-01-24T00:23:16.140Z,-2.98
2019-01-24T00:24:16.159Z,-2.93
2019-01-24T00:25:16.183Z,-2.98
2019-01-24T00:26:16.198Z,-2.94
2019-01-24T00:27:16.222Z,-2.99
2019-01-24T00:28:16.240Z,-2.99
2019-01-24T00:29:16.263Z,-3.02
2019-01-24T00:30:16.286Z,-3.04
2019-01-24T00:31:16.307Z,-2.98
2019-01-24T00:32:16.323Z,-3.19
2019-01-24T00:33:16.344Z,-3.04
2019-01-24T00:34:16.364Z,-3.11
2019-01-24T00:35:16.384Z,-3.05
2019-01-24T00:36:16.405Z,-3.05
2019-01-24T00:37:16.435Z,-3.04
2019-01-24T00:38:16.450Z,-3.07
2019-01-24T00:39:16.466Z,-3.01
2019-01-24T00:40:16.487Z,-3.02
2019-01-24T00:41:16.509Z,-3.08
2019-01-24T00:42:16.528Z,-3.12
2019-01-24T00:43:16.548Z,-3.15
2019-01-24T00:44:16.576Z,-3.08
2019-01-24T00:45:16.588Z,-3.02
2019-01-24T00:46:16.611Z,-3.05
2019-01-24T00:47:16.631Z,-3.04
2019-01-24T00:48:16.652Z,-3.15
2019-01-24T00:49:16.670Z,-3.08
2019-01-24T00:50:16.695Z,-3.14
2019-01-24T00:51:16.713Z,-3.09
2019-01-24T00:52:16.732Z,-3.15
2019-01-24T00:53:16.752Z,-3.09
2019-01-24T00:54:16.774Z,-3.12
2019-01-24T00:55:16.794Z,-3.12
2019-01-24T00:56:16.816Z,-3.11
2019-01-24T00:57:16.834Z,-3.11
2019-01-24T00:58:16.857Z,-3.11
2019-01-24T00:59:16.875Z,-3.09
2019-01-24T01:00:16.901Z,-3.12
2019-01-24T01:01:16.919Z,-3.15
2019-01-24T01:02:16.944Z,-3.15
2019-01-24T01:03:16.960Z,-3.22
2019-01-24T01:04:16.978Z,-3.17
2019-01-24T01:05:16.997Z,-3.19
2019-01-24T01:06:17.019Z,-3.15
2019-01-24T01:07:17.039Z,-3.15
2019-01-24T01:08:17.067Z,-3.19
2019-01-24T01:09:17.078Z,-3.25
2019-01-24T01:10:17.102Z,-3.25
2019-01-24T01:11:17.122Z,-3.17
2019-01-24T01:12:17.142Z,-3.22
2019-01-24T01:13:17.160Z,-3.30
2019-01-24T01:14:17.182Z,-3.20
2019-01-24T01:15:17.203Z,-3.30
2019-01-24T01:16:17.225Z,-3.15
2019-01-24T01:17:17.240Z,-3.30
2019-01-24T01:18:17.262Z,-3.32
2019-01-24T01:19:17.282Z,-3.27
2019-01-24T01:20:17.303Z,-3.20
2019-01-24T01:21:17.323Z,-3.38
2019-01-24T01:22:17.345Z,-3.23
2019-01-24T01:23:17.364Z,-3.22
2019-01-24T01:24:17.384Z,-3.20
2019-01-24T01:25:17.407Z,-3.25
2019-01-24T01:26:17.429Z,-3.23
2019-01-24T01:27:17.445Z,-3.25
2019-01-24T01:28:17.466Z,-3.27
2019-01-24T01:29:17.484Z,-3.26
2019-01-24T01:30:17.506Z,-3.26
2019-01-24T01:31:17.526Z,-3.30
2019-01-24T01:32:17.547Z,-3.25
2019-01-24T01:33:17.564Z,-3.27
2019-01-24T01:34:17.588Z,-3.26
2019-01-24T01:35:17.606Z,-3.27
2019-01-24T01:36:17.624Z,-3.32
2019-01-24T01:37:17.648Z,-3.36
2019-01-24T01:38:17.665Z,-3.37
2019-01-24T01:39:17.687Z,-3.36
2019-01-24T01:40:17.708Z,-3.33
2019-01-24T01:41:17.725Z,-3.36
2019-01-24T01:42:17.745Z,-3.33
2019-01-24T01:43:17.767Z,-3.40
2019-01-24T01:44:17.786Z,-3.37
2019-01-24T01:45:17.804Z,-3.30
2019-01-24T01:46:17.828Z,-3.38
2019-01-24T01:47:17.847Z,-3.38
2019-01-24T01:48:17.868Z,-3.36
2019-01-24T01:49:17.886Z,-3.36
2019-01-24T01:50:17.906Z,-3.29
2019-01-24T01:51:17.926Z,-3.38
2019-01-24T01:52:17.946Z,-3.50
2019-01-24T01:53:17.968Z,-3.43
2019-01-24T01:54:17.985Z,-3.50
2019-01-24T01:55:18.006Z,-3.44
2019-01-24T01:56:18.026Z,-3.38
2019-01-24T01:57:18.048Z,-3.44
2019-01-24T01:58:18.066Z,-3.53
2019-01-24T01:59:18.087Z,-3.46
2019-01-24T02:00:18.112Z,-3.38
2019-01-24T02:01:18.128Z,-3.51
2019-01-24T02:02:18.146Z,-3.53
2019-01-24T02:03:18.166Z,-3.48
2019-01-24T02:04:18.188Z,-3.53
2019-01-24T02:05:18.208Z,-3.47
2019-01-24T02:06:18.233Z,-3.53
2019-01-24T02:07:18.246Z,-3.53
2019-01-24T02:08:18.266Z,-3.50
2019-01-24T02:09:18.289Z,-3.55
2019-01-24T02:10:18.306Z,-3.53
2019-01-24T02:11:18.332Z,-3.58
2019-01-24T02:12:18.351Z,-3.50
2019-01-24T02:13:18.366Z,-3.47
2019-01-24T02:14:18.387Z,-3.56
2019-01-24T02:15:18.406Z,-3.40
2019-01-24T02:16:18.429Z,-3.53
2019-01-24T02:17:18.445Z,-3.41
2019-01-24T02:18:18.467Z,-3.48
2019-01-24T02:19:18.487Z,-3.46
2019-01-24T02:20:18.508Z,-3.44
2019-01-24T02:21:18.529Z,-3.47
2019-01-24T02:22:18.550Z,-3.37
2019-01-24T02:23:18.567Z,-3.36
2019-01-24T02:24:18.589Z,-3.36
2019-01-24T02:25:18.609Z,-3.41
2019-01-24T02:26:18.629Z,-3.40
2019-01-24T02:27:18.646Z,-3.37
2019-01-24T02:28:18.666Z,-3.38
2019-01-24T02:29:18.685Z,-3.29
2019-01-24T02:30:18.708Z,-3.25
2019-01-24T02:31:18.725Z,-3.25
2019-01-24T02:32:18.749Z,-3.27
2019-01-24T02:33:18.767Z,-3.27
2019-01-24T02:34:18.784Z,-3.20
2019-01-24T02:35:18.805Z,-3.25
2019-01-24T02:36:18.825Z,-3.20
2019-01-24T02:37:18.843Z,-3.15
2019-01-24T02:38:18.867Z,-3.20
2019-01-24T02:39:18.886Z,-3.25
2019-01-24T02:40:18.903Z,-3.20
2019-01-24T02:41:18.931Z,-3.19
2019-01-24T02:42:18.943Z,-3.15
2019-01-24T02:43:18.963Z,-3.20
2019-01-24T02:44:18.983Z,-3.19
2019-01-24T02:45:19.005Z,-3.15
2019-01-24T02:46:19.024Z,-3.15
2019-01-24T02:47:19.044Z,-3.22
2019-01-24T02:48:19.064Z,-3.15
2019-01-24T02:49:19.085Z,-3.11
2019-01-24T02:50:19.106Z,-3.11
2019-01-24T02:51:19.122Z,-3.11
2019-01-24T02:52:19.145Z,-3.09
2019-01-24T02:53:19.164Z,-3.12
2019-01-24T02:54:19.182Z,-3.07
2019-01-24T02:55:19.203Z,-3.12
2019-01-24T02:56:19.225Z,-3.08
2019-01-24T02:57:19.241Z,-3.12
2019-01-24T02:58:19.266Z,-3.12
2019-01-24T02:59:19.286Z,-3.07
2019-01-24T03:00:19.301Z,-3.12
2019-01-24T03:01:19.326Z,-3.12
2019-01-24T03:02:19.341Z,-3.05
2019-01-24T03:03:19.366Z,-3.12
2019-01-24T03:04:19.383Z,-3.02
2019-01-24T03:05:19.404Z,-3.01
2019-01-24T03:06:19.421Z,-3.08
2019-01-24T03:07:19.441Z,-3.12
2019-01-24T03:08:19.461Z,-3.11
2019-01-24T03:09:19.481Z,-3.15
2019-01-24T03:10:19.500Z,-3.11
2019-01-24T03:11:19.523Z,-3.12
2019-01-24T03:12:19.544Z,-3.12
2019-01-24T03:13:19.561Z,-3.04
2019-01-24T03:14:19.580Z,-3.11
2019-01-24T03:15:19.602Z,-3.12
2019-01-24T03:16:19.662Z,-3.11
2019-01-24T03:17:19.641Z,-3.09
2019-01-24T03:18:19.663Z,-3.11
2019-01-24T03:19:19.684Z,-3.12
2019-01-24T03:20:19.706Z,-3.11
2019-01-24T03:21:19.721Z,-3.14
2019-01-24T03:22:19.745Z,-3.09
2019-01-24T03:23:19.762Z,-3.11
2019-01-24T03:24:19.782Z,-3.11
2019-01-24T03:25:19.806Z,-3.11
2019-01-24T03:26:19.821Z,-3.09
2019-01-24T03:27:19.843Z,-3.11
2019-01-24T03:28:19.868Z,-3.20
2019-01-24T03:29:19.886Z,-3.23
2019-01-24T03:30:20.033Z,-3.22
2019-01-24T03:31:19.932Z,-3.17
2019-01-24T03:32:19.944Z,-3.12
2019-01-24T03:33:19.963Z,-3.11
2019-01-24T03:34:19.984Z,-3.09
2019-01-24T03:35:20.004Z,-3.17
2019-01-24T03:36:20.029Z,-3.14
2019-01-24T03:37:20.046Z,-3.11
2019-01-24T03:38:20.065Z,-3.12
2019-01-24T03:39:20.084Z,-3.14
2019-01-24T03:40:20.105Z,-3.14
2019-01-24T03:41:20.123Z,-3.15
2019-01-24T03:42:20.144Z,-3.09
2019-01-24T03:43:20.164Z,-3.14
2019-01-24T03:44:20.187Z,-3.14
2019-01-24T03:45:20.204Z,-3.14
2019-01-24T03:46:20.224Z,-3.17
2019-01-24T03:47:20.247Z,-3.09
2019-01-24T03:48:20.270Z,-3.12
2019-01-24T03:49:20.288Z,-3.12
2019-01-24T03:50:20.305Z,-3.12
2019-01-24T03:51:20.329Z,-3.04
2019-01-24T03:52:20.345Z,-3.05
2019-01-24T03:53:20.368Z,-3.02
2019-01-24T03:54:20.386Z,-3.05
2019-01-24T03:55:20.411Z,-3.09
2019-01-24T03:56:20.428Z,-3.05
2019-01-24T03:57:20.453Z,-3.07
2019-01-24T03:58:20.471Z,-3.02
2019-01-24T03:59:20.488Z,-3.04
2019-01-24T04:00:20.571Z,-3.01
2019-01-24T04:01:20.530Z,-3.17
2019-01-24T04:02:20.555Z,-3.12
2019-01-24T04:03:20.571Z,-3.08
2019-01-24T04:04:20.589Z,-3.02
2019-01-24T04:05:20.610Z,-3.08
2019-01-24T04:06:20.630Z,-2.99
2019-01-24T04:07:20.653Z,-3.04
2019-01-24T04:08:20.709Z,-3.02
2019-01-24T04:09:20.691Z,-3.12
2019-01-24T04:10:20.714Z,-3.09
2019-01-24T04:11:20.732Z,-3.08
2019-01-24T04:12:20.753Z,-2.98
2019-01-24T04:13:20.773Z,-3.04
2019-01-24T04:14:20.794Z,-2.99
2019-01-24T04:15:20.813Z,-2.96
2019-01-24T04:16:20.836Z,-3.04
2019-01-24T04:17:20.856Z,-3.04
2019-01-24T04:18:20.878Z,-2.99
2019-01-24T04:19:20.900Z,-3.01
2019-01-24T04:20:20.916Z,-3.08
2019-01-24T04:21:20.937Z,-3.12
2019-01-24T04:22:20.959Z,-3.04
2019-01-24T04:23:20.980Z,-3.01
2019-01-24T04:24:21.001Z,-3.07
2019-01-24T04:25:21.020Z,-3.04
2019-01-24T04:26:21.046Z,-3.02
2019-01-24T04:27:21.060Z,-3.12
2019-01-24T04:28:21.082Z,-3.04
2019-01-24T04:29:21.100Z,-3.11
2019-01-24T04:30:21.120Z,-3.04
2019-01-24T04:31:21.143Z,-3.05
2019-01-24T04:32:21.161Z,-3.04
2019-01-24T04:33:21.187Z,-2.99
2019-01-24T04:34:21.204Z,-3.01
2019-01-24T04:35:21.224Z,-2.99
2019-01-24T04:36:21.248Z,-3.05
2019-01-24T04:37:21.266Z,-2.98
2019-01-24T04:38:21.286Z,-3.02
2019-01-24T04:39:21.308Z,-3.05
2019-01-24T04:40:21.327Z,-3.01
2019-01-24T04:41:21.346Z,-3.05
2019-01-24T04:42:21.366Z,-3.04
2019-01-24T04:43:21.393Z,-2.99
2019-01-24T04:44:21.409Z,-3.02
2019-01-24T04:45:21.428Z,-3.05
2019-01-24T04:46:21.450Z,-3.08
2019-01-24T04:47:21.470Z,-3.08
2019-01-24T04:48:21.492Z,-3.12
2019-01-24T04:49:21.509Z,-3.12
2019-01-24T04:50:21.536Z,-3.04
2019-01-24T04:51:21.555Z,-3.11
2019-01-24T04:52:21.575Z,-3.09
2019-01-24T04:53:21.594Z,-3.11
2019-01-24T04:54:21.616Z,-3.02
2019-01-24T04:55:21.635Z,-2.99
2019-01-24T04:56:21.654Z,-3.04
2019-01-24T04:57:21.675Z,-3.09
2019-01-24T04:58:21.696Z,-3.07
2019-01-24T04:59:21.719Z,-3.12
2019-01-24T05:00:21.738Z,-3.01
2019-01-24T05:01:21.757Z,-3.01
2019-01-24T05:02:21.780Z,-3.02
2019-01-24T05:03:21.800Z,-2.98
2019-01-24T05:04:21.824Z,-3.01
2019-01-24T05:05:27.450Z,-2.99
2019-01-24T05:06:21.864Z,-2.99
2019-01-24T05:07:21.882Z,-3.01
2019-01-24T05:08:21.907Z,-3.02
2019-01-24T05:09:21.928Z,-3.09
2019-01-24T05:10:21.948Z,-3.09
2019-01-24T05:11:21.971Z,-2.99
2019-01-24T05:12:21.985Z,-3.11
2019-01-24T05:13:22.008Z,-3.12
2019-01-24T05:14:22.034Z,-3.09
2019-01-24T05:15:22.047Z,-3.09
2019-01-24T05:16:22.069Z,-3.09
2019-01-24T05:17:23.466Z,-3.09
2019-01-24T05:18:22.106Z,-3.11
2019-01-24T05:19:22.129Z,-3.15
2019-01-24T05:20:22.150Z,-3.14
2019-01-24T05:21:22.170Z,-3.14
2019-01-24T05:22:22.197Z,-3.09
2019-01-24T05:23:22.211Z,-3.07
2019-01-24T05:24:22.231Z,-3.08
2019-01-24T05:25:22.252Z,-3.05
2019-01-24T05:26:22.273Z,-3.04
2019-01-24T05:27:22.295Z,-3.05
2019-01-24T05:28:22.322Z,-2.99
2019-01-24T05:29:22.335Z,-3.04
2019-01-24T05:30:22.358Z,-2.98
2019-01-24T05:31:22.378Z,-3.01
2019-01-24T05:32:22.399Z,-2.98
2019-01-24T05:33:22.418Z,-3.02
2019-01-24T05:34:22.439Z,-3.04
2019-01-24T05:35:22.463Z,-2.99
2019-01-24T05:36:22.480Z,-3.02
2019-01-24T05:37:22.502Z,-2.99
2019-01-24T05:38:22.520Z,-3.02
2019-01-24T05:39:22.551Z,-3.05
2019-01-24T05:40:22.563Z,-2.96
2019-01-24T05:41:22.583Z,-2.96
2019-01-24T05:42:22.604Z,-3.04
2019-01-24T05:43:22.629Z,-3.04
2019-01-24T05:44:22.646Z,-3.05
2019-01-24T05:45:22.668Z,-3.04
2019-01-24T05:46:22.690Z,-2.99
2019-01-24T05:47:22.706Z,-3.12
2019-01-24T05:48:22.734Z,-3.07
2019-01-24T05:49:22.751Z,-3.01
2019-01-24T05:50:22.770Z,-3.07
2019-01-24T05:51:22.796Z,-3.11
2019-01-24T05:52:22.815Z,-3.12
2019-01-24T05:53:22.833Z,-3.12
2019-01-24T05:54:22.858Z,-3.14
2019-01-24T05:55:22.876Z,-3.08
2019-01-24T05:56:22.898Z,-3.14
2019-01-24T05:57:22.916Z,-3.07
2019-01-24T05:58:22.938Z,-3.09
2019-01-24T05:59:22.961Z,-3.14
2019-01-24T06:00:22.980Z,-3.04
2019-01-24T06:01:22.998Z,-3.14
2019-01-24T06:02:23.022Z,-3.05
2019-01-24T06:03:23.045Z,-3.17
2019-01-24T06:04:23.064Z,-3.11
2019-01-24T06:05:23.085Z,-3.15
2019-01-24T06:06:23.103Z,-3.02
2019-01-24T06:07:23.126Z,-3.04
2019-01-24T06:08:23.146Z,-3.09
2019-01-24T06:09:23.167Z,-3.09
2019-01-24T06:10:23.186Z,-3.15
2019-01-24T06:11:23.206Z,-3.12
2019-01-24T06:12:23.229Z,-3.09
2019-01-24T06:13:23.246Z,-3.08
2019-01-24T06:14:23.274Z,-3.17
2019-01-24T06:15:23.293Z,-3.11
2019-01-24T06:16:23.312Z,-3.11
2019-01-24T06:17:23.332Z,-3.12
2019-01-24T06:18:23.352Z,-3.09
2019-01-24T06:19:23.375Z,-3.15
2019-01-24T06:20:23.394Z,-3.12
2019-01-24T06:21:23.416Z,-3.12
2019-01-24T06:22:23.434Z,-3.12
2019-01-24T06:23:23.459Z,-3.12
2019-01-24T06:24:23.481Z,-2.99
2019-01-24T06:25:23.508Z,-3.02
2019-01-24T06:26:23.520Z,-3.04
2019-01-24T06:27:23.539Z,-3.07
2019-01-24T06:28:23.563Z,-3.04
2019-01-24T06:29:23.580Z,-3.01
2019-01-24T06:30:23.610Z,-2.99
2019-01-24T06:31:23.625Z,-3.04
2019-01-24T06:32:23.644Z,-2.98
2019-01-24T06:33:23.666Z,-3.01
2019-01-24T06:34:23.691Z,-2.98
2019-01-24T06:35:23.707Z,-3.05
2019-01-24T06:36:23.729Z,-3.01
2019-01-24T06:37:23.749Z,-2.98
2019-01-24T06:38:23.771Z,-2.96
2019-01-24T06:39:23.789Z,-3.02
2019-01-24T06:40:23.811Z,-2.96
2019-01-24T06:41:23.830Z,-3.01
2019-01-24T06:42:23.852Z,-2.93
2019-01-24T06:43:23.918Z,-2.96
2019-01-24T06:44:23.892Z,-2.91
2019-01-24T06:45:23.914Z,-2.98
2019-01-24T06:46:23.934Z,-2.93
2019-01-24T06:47:23.955Z,-2.93
2019-01-24T06:48:23.976Z,-2.93
2019-01-24T06:49:23.997Z,-3.04
2019-01-24T06:50:24.020Z,-3.02
2019-01-24T06:51:24.039Z,-3.02
2019-01-24T06:52:24.063Z,-2.99
2019-01-24T06:53:24.079Z,-3.02
2019-01-24T06:54:24.105Z,-3.04
2019-01-24T06:55:24.123Z,-2.96
2019-01-24T06:56:24.145Z,-3.04
2019-01-24T06:57:24.161Z,-3.01
2019-01-24T06:58:24.186Z,-2.91
2019-01-24T06:59:24.208Z,-3.01
2019-01-24T07:00:24.227Z,-2.87
2019-01-24T07:01:24.248Z,-2.90
2019-01-24T07:02:24.268Z,-2.96
2019-01-24T07:03:24.288Z,-2.90
2019-01-24T07:04:24.310Z,-2.96
2019-01-24T07:05:24.330Z,-2.91
2019-01-24T07:06:24.352Z,-2.98
2019-01-24T07:07:24.373Z,-2.90
2019-01-24T07:08:24.394Z,-2.96
2019-01-24T07:09:24.414Z,-2.90
2019-01-24T07:10:24.437Z,-2.90
2019-01-24T07:11:24.457Z,-2.84
2019-01-24T07:12:24.483Z,-2.84
2019-01-24T07:13:24.498Z,-2.87
2019-01-24T07:14:24.519Z,-2.86
2019-01-24T07:15:24.541Z,-2.80
2019-01-24T07:16:24.560Z,-2.78
2019-01-24T07:17:24.583Z,-2.76
2019-01-24T07:18:24.603Z,-2.70
2019-01-24T07:19:24.626Z,-2.70
2019-01-24T07:20:24.646Z,-2.72
2019-01-24T07:21:24.666Z,-2.72
2019-01-24T07:22:24.688Z,-2.69
2019-01-24T07:23:24.708Z,-2.75
2019-01-24T07:24:24.729Z,-2.69
2019-01-24T07:25:24.749Z,-2.66
2019-01-24T07:26:24.770Z,-2.73
2019-01-24T07:27:24.795Z,-2.73
2019-01-24T07:28:24.817Z,-2.69
2019-01-24T07:29:24.834Z,-2.65
2019-01-24T07:30:24.856Z,-2.66
2019-01-24T07:31:24.879Z,-2.69
2019-01-24T07:32:24.898Z,-2.65
2019-01-24T07:33:24.920Z,-2.58
2019-01-24T07:34:24.942Z,-2.61
2019-01-24T07:35:24.962Z,-2.66
2019-01-24T07:36:24.983Z,-2.52
2019-01-24T07:37:25.002Z,-2.70
2019-01-24T07:38:25.024Z,-2.54
2019-01-24T07:39:25.047Z,-2.55
2019-01-24T07:40:25.065Z,-2.52
2019-01-24T07:41:25.087Z,-2.62
2019-01-24T07:42:25.110Z,-2.55
2019-01-24T07:43:25.132Z,-2.62
2019-01-24T07:44:25.154Z,-2.52
2019-01-24T07:45:25.171Z,-2.58
2019-01-24T07:46:25.193Z,-2.57
2019-01-24T07:47:25.220Z,-2.48
2019-01-24T07:48:25.239Z,-2.52
2019-01-24T07:49:25.258Z,-2.54
2019-01-24T07:50:25.328Z,-2.54
2019-01-24T07:51:25.300Z,-2.51
2019-01-24T07:52:25.323Z,-2.44
2019-01-24T07:53:25.343Z,-2.42
2019-01-24T07:54:25.362Z,-2.42
2019-01-24T07:55:25.388Z,-2.39
2019-01-24T07:56:25.407Z,-2.37
2019-01-24T07:57:25.432Z,-2.34
2019-01-24T07:58:25.449Z,-2.29
2019-01-24T07:59:25.486Z,-2.33
2019-01-24T08:00:25.491Z,-2.36
2019-01-24T08:01:25.513Z,-2.29
2019-01-24T08:02:25.532Z,-2.32
2019-01-24T08:03:25.556Z,-2.22
2019-01-24T08:04:25.578Z,-2.20
2019-01-24T08:05:25.602Z,-2.25
2019-01-24T08:06:25.617Z,-2.11
2019-01-24T08:07:25.642Z,-2.15
2019-01-24T08:08:25.664Z,-2.20
2019-01-24T08:09:25.685Z,-2.15
2019-01-24T08:10:25.714Z,-2.08
2019-01-24T08:11:25.732Z,-2.15
2019-01-24T08:12:25.749Z,-2.10
2019-01-24T08:13:25.768Z,-2.15
2019-01-24T08:14:25.792Z,-2.10
2019-01-24T08:15:25.814Z,-2.04
2019-01-24T08:16:25.836Z,-2.14
2019-01-24T08:17:25.855Z,-2.07
2019-01-24T08:18:25.878Z,-2.10
2019-01-24T08:19:25.898Z,-2.11
2019-01-24T08:20:25.923Z,-1.94
2019-01-24T08:21:25.941Z,-1.99
2019-01-24T08:22:25.965Z,-1.99
2019-01-24T08:23:25.986Z,-1.94
2019-01-24T08:24:26.009Z,-1.89
2019-01-24T08:25:26.029Z,-1.94
2019-01-24T08:26:26.051Z,-1.92
2019-01-24T08:27:26.074Z,-1.96
2019-01-24T08:28:26.094Z,-1.90
2019-01-24T08:29:26.114Z,-1.86
2019-01-24T08:30:26.138Z,-1.87
2019-01-24T08:31:26.159Z,-1.82
2019-01-24T08:32:26.179Z,-1.79
2019-01-24T08:33:26.204Z,-1.84
2019-01-24T08:34:26.222Z,-1.82
2019-01-24T08:35:26.248Z,-1.75
2019-01-24T08:36:26.266Z,-1.68
2019-01-24T08:37:26.290Z,-1.71
2019-01-24T08:38:26.310Z,-1.69
2019-01-24T08:39:26.333Z,-1.71
2019-01-24T08:40:26.355Z,-1.74
2019-01-24T08:41:26.378Z,-1.71
2019-01-24T08:42:26.400Z,-1.61
2019-01-24T08:43:26.420Z,-1.56
2019-01-24T08:44:26.445Z,-1.57
2019-01-24T08:45:26.463Z,-1.68
2019-01-24T08:46:26.484Z,-1.61
2019-01-24T08:47:26.511Z,-1.61
2019-01-24T08:48:26.533Z,-1.64
2019-01-24T08:49:26.550Z,-1.58
2019-01-24T08:50:26.619Z,-1.50
2019-01-24T08:51:26.595Z,-1.48
2019-01-24T08:52:26.622Z,-1.53
2019-01-24T08:53:26.639Z,-1.36
2019-01-24T08:54:26.662Z,-1.35
2019-01-24T08:55:26.684Z,-1.39
2019-01-24T08:56:26.708Z,-1.36
2019-01-24T08:57:26.732Z,-1.35
2019-01-24T08:58:26.750Z,-1.36
2019-01-24T08:59:29.741Z,-1.38
2019-01-24T09:00:26.798Z,-1.42
2019-01-24T09:01:26.815Z,-1.33
2019-01-24T09:02:26.839Z,-1.30
2019-01-24T09:03:26.862Z,-1.09
2019-01-24T09:04:26.895Z,-1.12
2019-01-24T09:05:26.913Z,-1.11
2019-01-24T09:06:26.928Z,-1.11
2019-01-24T09:07:26.951Z,-1.15
2019-01-24T09:08:26.972Z,-1.15
2019-01-24T09:09:26.994Z,-1.12
2019-01-24T09:10:27.017Z,-1.04
2019-01-24T09:11:27.040Z,-1.01
2019-01-24T09:12:30.479Z,-0.97
2019-01-24T09:13:27.083Z,-1.01
2019-01-24T09:14:27.106Z,-1.03
2019-01-24T09:15:27.128Z,-0.94
2019-01-24T09:16:27.157Z,-1.00
2019-01-24T09:17:27.176Z,-1.14
2019-01-24T09:18:27.196Z,-1.14
2019-01-24T09:19:27.220Z,-1.03
2019-01-24T09:20:27.243Z,-0.97
2019-01-24T09:21:27.269Z,-1.03
2019-01-24T09:22:27.288Z,-0.99
2019-01-24T09:23:27.309Z,-1.07
2019-01-24T09:24:27.332Z,-0.97
2019-01-24T09:25:27.354Z,-0.89
2019-01-24T09:26:27.377Z,-0.85
2019-01-24T09:27:27.400Z,-0.75
2019-01-24T09:28:27.424Z,-0.82
2019-01-24T09:29:27.446Z,-0.75
2019-01-24T09:30:27.468Z,-0.77
2019-01-24T09:31:27.497Z,-0.84
2019-01-24T09:32:27.515Z,-0.72
2019-01-24T09:33:27.534Z,-0.77
2019-01-24T09:34:27.560Z,-0.82
2019-01-24T09:35:27.582Z,-0.78
2019-01-24T09:36:29.326Z,-0.64
2019-01-24T09:37:27.629Z,-0.59
2019-01-24T09:38:27.652Z,-0.53
2019-01-24T09:39:27.675Z,-0.64
2019-01-24T09:40:27.697Z,-0.67
2019-01-24T09:41:27.718Z,-0.64
2019-01-24T09:42:27.743Z,-0.67
2019-01-24T09:43:27.764Z,-0.57
2019-01-24T09:44:27.787Z,-0.60
2019-01-24T09:45:27.811Z,-0.66
2019-01-24T09:46:27.833Z,-0.56
2019-01-24T09:47:27.857Z,-0.64
2019-01-24T09:48:27.881Z,-0.59
2019-01-24T09:49:27.903Z,-0.51
2019-01-24T09:50:27.926Z,-0.49
2019-01-24T09:51:27.948Z,-0.48
2019-01-24T09:52:27.976Z,-0.53
2019-01-24T09:53:27.994Z,-0.48
2019-01-24T09:54:28.019Z,-0.30
2019-01-24T09:55:28.040Z,-0.41
2019-01-24T09:56:28.066Z,-0.33
2019-01-24T09:57:28.086Z,-0.31
2019-01-24T09:58:28.109Z,-0.20
2019-01-24T09:59:28.135Z,-0.18
2019-01-24T10:00:28.158Z,-0.24
2019-01-24T10:01:28.179Z,-0.20
2019-01-24T10:02:28.205Z,-0.28
2019-01-24T10:03:28.226Z,-0.24
2019-01-24T10:04:28.251Z,-0.42
2019-01-24T10:05:28.275Z,-0.26
2019-01-24T10:06:28.299Z,-0.33
2019-01-24T10:07:28.365Z,-0.38
2019-01-24T10:08:28.343Z,-0.42
2019-01-24T10:09:28.366Z,-0.36
2019-01-24T10:10:28.395Z,-0.35
2019-01-24T10:11:28.412Z,-0.24
2019-01-24T10:12:28.439Z,-0.17
2019-01-24T10:13:28.458Z,-0.12
2019-01-24T10:14:28.485Z,0.01
2019-01-24T10:15:28.506Z,-0.12
2019-01-24T10:16:28.529Z,-0.15
2019-01-24T10:17:28.553Z,-0.06
2019-01-24T10:18:28.575Z,-0.10
2019-01-24T10:19:28.602Z,-0.03
2019-01-24T10:20:28.622Z,-0.10
2019-01-24T10:21:28.646Z,-0.10
2019-01-24T10:22:28.670Z,-0.05
2019-01-24T10:23:28.693Z,-0.10
2019-01-24T10:24:28.718Z,-0.12
2019-01-24T10:25:28.740Z,-0.12
2019-01-24T10:26:28.766Z,0.06
2019-01-24T10:27:28.789Z,0.01
2019-01-24T10:28:28.811Z,0.06
2019-01-24T10:29:28.837Z,0.09
2019-01-24T10:30:28.857Z,-0.09
2019-01-24T10:31:29.704Z,0.05
2019-01-24T10:32:28.907Z,-0.03
2019-01-24T10:33:28.929Z,0.08
2019-01-24T10:34:28.953Z,0.11
2019-01-24T10:35:28.984Z,0.01
2019-01-24T10:36:29.000Z,0.01
2019-01-24T10:37:29.026Z,0.27
2019-01-24T10:38:29.049Z,0.30
2019-01-24T10:39:29.071Z,0.40
2019-01-24T10:40:29.101Z,0.31
2019-01-24T10:41:29.118Z,0.39
2019-01-24T10:42:29.147Z,0.42
2019-01-24T10:43:29.167Z,0.40
2019-01-24T10:44:29.194Z,0.42
2019-01-24T10:45:29.217Z,0.36
2019-01-24T10:46:29.240Z,0.31
2019-01-24T10:47:29.263Z,0.30
2019-01-24T10:48:29.287Z,0.18
2019-01-24T10:49:29.310Z,0.13
2019-01-24T10:50:29.338Z,0.23
2019-01-24T10:51:29.362Z,0.18
2019-01-24T10:52:29.384Z,0.23
2019-01-24T10:53:29.405Z,0.39
2019-01-24T10:54:29.436Z,0.31
2019-01-24T10:55:29.457Z,0.36
2019-01-24T10:56:29.478Z,0.34
2019-01-24T10:57:29.502Z,0.44
2019-01-24T10:58:29.529Z,0.20
2019-01-24T10:59:29.555Z,0.29
2019-01-24T11:00:29.575Z,0.44
2019-01-24T11:01:29.600Z,0.44
2019-01-24T11:02:29.622Z,0.44
2019-01-24T11:03:29.650Z,0.42
2019-01-24T11:04:29.672Z,0.49
2019-01-24T11:05:29.698Z,0.37
2019-01-24T11:06:29.720Z,0.24
2019-01-24T11:07:29.744Z,0.34
2019-01-24T11:08:29.769Z,0.24
2019-01-24T11:09:29.794Z,0.19
2019-01-24T11:10:29.813Z,0.31
2019-01-24T11:11:29.840Z,0.30
2019-01-24T11:12:29.863Z,0.47
2019-01-24T11:13:29.886Z,0.31
2019-01-24T11:14:29.912Z,0.39
2019-01-24T11:15:29.938Z,0.44
2019-01-24T11:16:29.960Z,0.31
2019-01-24T11:17:29.984Z,0.37
2019-01-24T11:18:30.013Z,0.42
2019-01-24T11:19:30.034Z,0.42
2019-01-24T11:20:30.058Z,0.56
2019-01-24T11:21:30.082Z,0.66
2019-01-24T11:22:30.106Z,0.68
2019-01-24T11:23:30.138Z,0.59
2019-01-24T11:24:30.154Z,0.68
2019-01-24T11:25:30.177Z,0.68
2019-01-24T11:26:30.202Z,0.73
2019-01-24T11:27:30.226Z,0.89
2019-01-24T11:28:30.255Z,0.94
2019-01-24T11:29:30.276Z,1.04
2019-01-24T11:30:30.301Z,1.03
2019-01-24T11:31:30.325Z,1.10
2019-01-24T11:32:30.349Z,0.95
2019-01-24T11:33:30.375Z,0.82
2019-01-24T11:34:30.403Z,0.96
2019-01-24T11:35:30.425Z,0.99
2019-01-24T11:36:30.447Z,0.91
2019-01-24T11:37:30.470Z,0.88
2019-01-24T11:38:30.496Z,0.95
2019-01-24T11:39:30.521Z,0.85
2019-01-24T11:40:30.547Z,0.92
2019-01-24T11:41:30.571Z,1.12
2019-01-24T11:42:30.595Z,1.16
2019-01-24T11:43:30.631Z,1.10
2019-01-24T11:44:30.650Z,1.03
2019-01-24T11:45:30.670Z,0.94
2019-01-24T11:46:30.693Z,0.89
2019-01-24T11:47:30.718Z,0.86
2019-01-24T11:48:30.745Z,0.74
2019-01-24T11:49:30.768Z,0.64
2019-01-24T11:50:30.793Z,0.71
2019-01-24T11:51:30.818Z,0.71
2019-01-24T11:52:30.846Z,0.81
2019-01-24T11:53:30.873Z,0.86
2019-01-24T11:54:30.890Z,0.71
2019-01-24T11:55:30.918Z,0.77
2019-01-24T11:56:30.943Z,0.66
2019-01-24T11:57:30.966Z,0.59
2019-01-24T11:58:30.995Z,0.59
2019-01-24T11:59:31.017Z,0.66
2019-01-24T12:00:31.042Z,0.64
2019-01-24T12:01:31.069Z,0.61
2019-01-24T12:02:31.089Z,0.61
2019-01-24T12:03:31.118Z,0.52
2019-01-24T12:04:31.140Z,0.55
2019-01-24T12:05:31.169Z,0.49
2019-01-24T12:06:31.190Z,0.45
2019-01-24T12:07:31.213Z,0.49
2019-01-24T12:08:31.242Z,0.47
2019-01-24T12:09:31.262Z,0.52
2019-01-24T12:10:31.290Z,0.61
2019-01-24T12:11:31.310Z,0.63
2019-01-24T12:12:31.336Z,0.51
2019-01-24T12:13:31.358Z,0.61
2019-01-24T12:14:31.381Z,0.55
2019-01-24T12:15:31.412Z,0.51
2019-01-24T12:16:31.453Z,0.64
2019-01-24T12:17:31.459Z,0.70
2019-01-24T12:18:31.479Z,0.73
2019-01-24T12:19:31.506Z,0.84
2019-01-24T12:20:31.532Z,0.84
2019-01-24T12:21:31.555Z,0.88
2019-01-24T12:22:31.576Z,0.95
2019-01-24T12:23:31.604Z,1.00
2019-01-24T12:24:31.627Z,0.96
2019-01-24T12:25:31.652Z,1.06
2019-01-24T12:26:31.682Z,1.07
2019-01-24T12:27:31.697Z,1.07
2019-01-24T12:28:31.934Z,1.04
2019-01-24T12:29:31.745Z,0.88
2019-01-24T12:30:31.774Z,0.94
2019-01-24T12:31:31.795Z,1.04
2019-01-24T12:32:31.821Z,0.92
2019-01-24T12:33:31.844Z,0.95
2019-01-24T12:34:31.871Z,0.89
2019-01-24T12:35:31.893Z,0.91
2019-01-24T12:36:31.920Z,0.91
2019-01-24T12:37:31.941Z,0.86
2019-01-24T12:38:31.970Z,0.91
2019-01-24T12:39:31.993Z,0.76
2019-01-24T12:40:32.015Z,0.88
2019-01-24T12:41:32.038Z,0.76
2019-01-24T12:42:32.061Z,0.86
2019-01-24T12:43:32.088Z,0.67
2019-01-24T12:44:32.112Z,0.67
2019-01-24T12:45:32.137Z,0.66
2019-01-24T12:46:32.162Z,0.58
2019-01-24T12:47:32.184Z,0.59
2019-01-24T12:48:32.214Z,0.58
2019-01-24T12:49:32.233Z,0.51
2019-01-24T12:50:32.258Z,0.66
2019-01-24T12:51:32.284Z,0.52
2019-01-24T12:52:32.309Z,0.47
2019-01-24T12:53:32.330Z,0.52
2019-01-24T12:54:32.354Z,0.44
2019-01-24T12:55:32.379Z,0.44
2019-01-24T12:56:32.403Z,0.44
2019-01-24T12:57:32.430Z,0.30